createdAt,value
2023-04-19T00:01:58.958Z,102254.41
2023-04-19T00:07:00.852Z,102256.66
2023-04-19T00:12:04.182Z,102250.69
2023-04-19T00:17:06.090Z,102247.38
2023-04-19T00:22:08.019Z,102243.59
2023-04-19T00:27:11.199Z,102241.34
2023-04-19T00:32:16.079Z,102239.94
2023-04-19T00:37:17.999Z,102243.78
2023-04-19T00:42:21.642Z,102240.88
2023-04-19T00:47:23.510Z,102234.50
2023-04-19T00:52:26.382Z,102242.81
2023-04-19T00:57:29.883Z,102246.84
2023-04-19T01:02:32.001Z,102243.75
2023-04-19T01:07:34.048Z,102236.56
2023-04-19T01:12:37.275Z,102237.06
2023-04-19T01:17:39.208Z,102228.03
2023-04-19T01:22:42.344Z,102228.78
2023-04-19T01:27:44.509Z,102231.03
2023-04-19T01:32:46.406Z,102238.31
2023-04-19T01:37:50.682Z,102230.09
2023-04-19T01:42:52.585Z,102234.94
2023-04-19T01:47:54.433Z,102238.13
2023-04-19T01:52:57.694Z,102238.72
2023-04-19T01:57:59.418Z,102247.84
2023-04-19T02:03:02.223Z,102236.22
2023-04-19T02:08:05.703Z,102231.81
2023-04-19T02:13:07.537Z,102224.56
2023-04-19T02:18:09.767Z,102227.84
2023-04-19T02:23:13.294Z,102225.91
2023-04-19T02:28:15.238Z,102228.97
2023-04-19T02:33:17.472Z,102224.25
2023-04-19T02:38:20.643Z,102229.94
2023-04-19T02:43:22.357Z,102227.25
2023-04-19T02:48:24.171Z,102226.75
2023-04-19T02:53:27.335Z,102224.88
2023-04-19T02:58:29.373Z,102221.25
2023-04-19T03:03:39.075Z,102219.25
2023-04-19T03:08:42.377Z,102225.06
2023-04-19T03:13:44.264Z,102214.63
2023-04-19T03:18:49.455Z,102213.81
2023-04-19T03:23:56.008Z,102212.69
2023-04-19T03:28:59.649Z,102211.09
2023-04-19T03:34:22.785Z,102206.78
2023-04-19T03:39:26.249Z,102207.94
2023-04-19T03:44:33.971Z,102202.59
2023-04-19T03:49:38.369Z,102198.22
2023-04-19T03:54:42.738Z,102192.84
2023-04-19T03:59:55.204Z,102185.13
2023-04-19T04:04:57.202Z,102192.09
2023-04-19T04:10:00.926Z,102192.22
2023-04-19T04:15:04.173Z,102193.72
2023-04-19T04:20:08.886Z,102190.81
2023-04-19T04:25:13.389Z,102188.28
2023-04-19T04:30:15.294Z,102187.72
2023-04-19T04:35:17.623Z,102192.22
2023-04-19T04:40:30.606Z,102185.44
2023-04-19T04:45:32.649Z,102191.91
2023-04-19T04:50:36.181Z,102189.75
2023-04-19T04:55:39.487Z,102190.38
2023-04-19T05:00:41.271Z,102191.22
2023-04-19T05:05:45.367Z,102182.50
2023-04-19T05:10:48.597Z,102184.78
2023-04-19T05:15:50.510Z,102188.66
2023-04-19T05:20:52.394Z,102187.44
2023-04-19T05:25:58.977Z,102182.59
2023-04-19T05:31:02.739Z,102185.28
2023-04-19T05:36:09.646Z,102179.56
2023-04-19T05:41:12.938Z,102174.50
2023-04-19T05:46:14.736Z,102173.38
2023-04-19T05:51:18.828Z,102163.75
2023-04-19T05:56:42.672Z,102174.41
2023-04-19T06:01:44.747Z,102163.38
2023-04-19T06:06:47.204Z,102162.16
2023-04-19T06:11:54.591Z,102157.56
2023-04-19T06:16:56.946Z,102145.94
2023-04-19T06:21:58.779Z,102154.19
2023-04-19T06:27:02.230Z,102141.56
2023-04-19T06:32:04.141Z,102142.03
2023-04-19T06:37:05.819Z,102154.06
2023-04-19T06:42:08.866Z,102152.25
2023-04-19T06:47:10.865Z,102158.13
2023-04-19T06:52:12.523Z,102146.03
2023-04-19T06:57:15.497Z,102140.88
2023-04-19T07:02:17.321Z,102138.53
2023-04-19T07:07:19.116Z,102127.97
2023-04-19T07:12:22.137Z,102113.88
2023-04-19T07:17:23.973Z,102129.34
2023-04-19T07:22:25.728Z,102126.16
2023-04-19T07:27:28.820Z,102121.84
2023-04-19T07:32:31.327Z,102104.75
2023-04-19T07:37:33.084Z,102096.69
2023-04-19T07:42:36.160Z,102103.28
2023-04-19T07:47:37.941Z,102077.69
2023-04-19T07:52:39.788Z,102081.94
2023-04-19T07:57:47.965Z,102067.22
2023-04-19T08:02:49.859Z,102066.59
2023-04-19T08:07:51.928Z,102063.31
2023-04-19T08:13:05.226Z,102061.81
2023-04-19T08:18:08.182Z,102074.84
2023-04-19T08:23:21.505Z,102063.91
2023-04-19T08:28:29.004Z,102059.06
2023-04-19T08:33:30.740Z,102042.72
2023-04-19T08:38:32.438Z,102036.31
2023-04-19T08:43:36.808Z,102038.84
2023-04-19T08:48:38.628Z,102038.66
2023-04-19T08:53:40.381Z,102031.44
2023-04-19T08:58:58.026Z,102016.78
2023-04-19T09:04:17.156Z,102005.31
2023-04-19T09:14:32.393Z,101988.44
2023-04-19T09:19:45.269Z,101979.09
2023-04-19T09:25:27.742Z,101964.41
2023-04-19T09:30:20.811Z,101940.78
2023-04-19T09:35:39.843Z,101937.84
2023-04-19T09:40:42.343Z,101935.34
2023-04-19T09:45:46.287Z,101923.88
2023-04-19T09:50:59.007Z,101913.34
2023-04-19T09:56:03.958Z,101914.78
2023-04-19T10:01:14.921Z,101911.34
2023-04-19T10:11:23.557Z,101884.22
2023-04-19T10:16:27.082Z,101889.28
2023-04-19T10:21:28.904Z,101879.56
2023-04-19T10:26:30.650Z,101885.53
2023-04-19T10:31:33.754Z,101888.47
2023-04-19T10:36:35.595Z,101861.22
2023-04-19T10:41:59.491Z,101855.66
2023-04-19T10:47:02.711Z,101841.88
2023-04-19T10:52:04.456Z,101838.22
2023-04-19T10:57:06.568Z,101835.78
2023-04-19T11:02:32.459Z,101821.53
2023-04-19T11:07:40.184Z,101821.34
2023-04-19T11:12:42.724Z,101811.22
2023-04-19T11:17:46.150Z,101828.31
2023-04-19T11:22:48.073Z,101823.47
2023-04-19T11:27:52.061Z,101826.91
2023-04-19T11:32:55.735Z,101810.91
2023-04-19T11:37:58.577Z,101809.34
2023-04-19T11:43:02.436Z,101788.66
2023-04-19T11:48:07.232Z,101785.47
2023-04-19T11:53:13.848Z,101793.66
2023-04-19T11:58:25.752Z,101771.38
2023-04-19T12:03:29.016Z,101771.22
2023-04-19T12:08:32.272Z,101763.34
2023-04-19T12:13:34.082Z,101773.91
2023-04-19T12:18:45.097Z,101772.97
2023-04-19T12:23:46.838Z,101756.56
2023-04-19T12:28:48.526Z,101757.72
2023-04-19T12:33:51.556Z,101756.88
2023-04-19T12:38:53.339Z,101750.72
2023-04-19T12:43:55.542Z,101741.06
2023-04-19T12:48:58.598Z,101739.06
2023-04-19T12:54:00.594Z,101744.25
2023-04-19T12:59:02.344Z,101744.56
2023-04-19T13:04:05.732Z,101727.66
2023-04-19T13:09:14.204Z,101728.56
2023-04-19T13:14:16.964Z,101726.91
2023-04-19T13:19:20.402Z,101733.19
2023-04-19T13:24:22.119Z,101721.75
2023-04-19T13:29:23.885Z,101719.94
2023-04-19T13:34:26.970Z,101716.44
2023-04-19T13:39:28.678Z,101705.00
2023-04-19T13:44:30.707Z,101709.47
2023-04-19T13:49:33.771Z,101710.34
2023-04-19T13:54:35.571Z,101698.91
2023-04-19T13:59:37.714Z,101686.66
2023-04-19T14:04:40.787Z,101684.03
2023-04-19T14:09:42.522Z,101693.63
2023-04-19T14:14:44.339Z,101684.84
2023-04-19T14:19:48.562Z,101686.56
2023-04-19T14:24:50.722Z,101668.16
2023-04-19T14:29:52.384Z,101655.06
2023-04-19T14:34:58.118Z,101659.38
2023-04-19T14:39:59.819Z,101655.84
2023-04-19T14:45:01.552Z,101652.34
2023-04-19T14:50:05.622Z,101648.81
2023-04-19T14:55:08.740Z,101643.59
2023-04-19T15:00:12.168Z,101625.19
2023-04-19T15:05:15.894Z,101633.09
2023-04-19T15:10:18.115Z,101628.66
2023-04-19T15:15:19.870Z,101622.47
2023-04-19T15:20:22.954Z,101632.97
2023-04-19T15:25:25.960Z,101615.50
2023-04-19T15:30:27.694Z,101612.88
2023-04-19T15:35:32.078Z,101599.69
2023-04-19T15:40:33.812Z,101601.41
2023-04-19T15:45:35.957Z,101623.28
2023-04-19T15:50:39.669Z,101607.47
2023-04-19T15:55:42.224Z,101625.72
2023-04-19T16:00:44.611Z,101631.78
2023-04-19T16:05:51.470Z,101618.47
2023-04-19T16:10:53.418Z,101617.59
2023-04-19T16:15:55.520Z,101617.69
2023-04-19T16:20:58.587Z,101606.28
2023-04-19T16:26:00.326Z,101615.81
2023-04-19T16:31:02.118Z,101607.97
2023-04-19T16:36:06.012Z,101615.88
2023-04-19T16:41:07.806Z,101612.22
2023-04-19T16:46:10.855Z,101607.66
2023-04-19T16:51:14.045Z,101615.41
2023-04-19T16:56:16.703Z,101610.09
2023-04-19T17:01:18.900Z,101596.94
2023-04-19T17:06:22.315Z,101601.31
2023-04-19T17:11:24.202Z,101606.38
2023-04-19T17:16:26.192Z,101600.97
2023-04-19T17:21:29.557Z,101596.56
2023-04-19T17:26:31.435Z,101606.03
2023-04-19T17:31:33.625Z,101624.13
2023-04-19T17:36:42.057Z,101613.44
2023-04-19T17:41:44.884Z,101617.47
2023-04-19T17:46:46.898Z,101634.75
2023-04-19T17:51:50.270Z,101628.38
2023-04-19T17:56:52.586Z,101622.94
2023-04-19T18:01:54.436Z,101630.66
2023-04-19T18:06:57.617Z,101633.06
2023-04-19T18:12:01.510Z,101641.59
2023-04-19T18:17:05.493Z,101630.06
2023-04-19T18:22:08.664Z,101623.97
2023-04-19T18:27:10.732Z,101638.66
2023-04-19T18:32:12.614Z,101636.53
2023-04-19T18:37:16.263Z,101651.91
2023-04-19T18:42:18.046Z,101648.13
2023-04-19T18:47:20.018Z,101644.59
2023-04-19T18:52:23.207Z,101648.56
2023-04-19T18:57:27.391Z,101649.16
2023-04-19T19:02:30.877Z,101643.63
2023-04-19T19:07:36.922Z,101635.31
2023-04-19T19:12:39.633Z,101630.63
2023-04-19T19:17:43.602Z,101613.00
2023-04-19T19:22:47.024Z,101596.06
2023-04-19T19:28:06.299Z,101594.47
2023-04-19T19:33:09.992Z,101589.25
2023-04-19T19:38:13.238Z,101579.94
2023-04-19T19:43:15.254Z,101585.16
2023-04-19T19:48:17.619Z,101591.16
2023-04-19T19:53:21.110Z,101592.28
2023-04-19T19:58:46.396Z,101583.84
2023-04-19T20:03:45.204Z,101575.00
2023-04-19T20:08:49.984Z,101560.38
2023-04-19T20:13:51.991Z,101561.25
2023-04-19T20:18:54.622Z,101541.56
2023-04-19T20:23:57.859Z,101545.09
2023-04-19T20:29:00.391Z,101536.53
2023-04-19T20:34:02.383Z,101534.97
2023-04-19T20:39:19.884Z,101539.34
2023-04-19T20:44:22.907Z,101523.53
2023-04-19T20:49:24.901Z,101521.91
2023-04-19T20:54:28.104Z,101516.44
2023-04-19T20:59:30.098Z,101516.41
2023-04-19T21:04:32.806Z,101514.66
2023-04-19T21:09:37.051Z,101511.03
2023-04-19T21:14:38.808Z,101517.00
2023-04-19T21:19:41.829Z,101515.25
2023-04-19T21:24:45.317Z,101506.41
2023-04-19T21:29:47.393Z,101503.97
2023-04-19T21:34:49.260Z,101507.34
2023-04-19T21:39:52.935Z,101508.91
2023-04-19T21:44:54.720Z,101505.91
2023-04-19T21:49:56.590Z,101507.72
2023-04-19T21:54:59.718Z,101525.72
2023-04-19T22:00:01.514Z,101523.38
2023-04-19T22:05:07.089Z,101525.66
2023-04-19T22:10:12.190Z,101522.97
2023-04-19T22:15:14.179Z,101527.03
2023-04-19T22:20:16.145Z,101532.38
2023-04-19T22:25:19.895Z,101532.56
2023-04-19T22:30:21.797Z,101517.13
2023-04-19T22:35:23.703Z,101509.53
2023-04-19T22:40:26.777Z,101504.22
2023-04-19T22:45:28.596Z,101512.72
2023-04-19T22:50:31.046Z,101507.91
2023-04-19T22:55:34.267Z,101501.09
2023-04-19T23:00:36.154Z,101491.34
2023-04-19T23:05:37.987Z,101493.06
2023-04-19T23:10:42.426Z,101479.91
2023-04-19T23:15:44.408Z,101479.16
2023-04-19T23:20:46.588Z,101482.31
2023-04-19T23:25:51.126Z,101482.97
2023-04-19T23:30:52.976Z,101476.69
2023-04-19T23:35:55.014Z,101465.72
2023-04-19T23:40:58.131Z,101455.59
2023-04-19T23:45:59.958Z,101447.91
2023-04-19T23:51:02.029Z,101439.38
2023-04-19T23:56:06.541Z,101439.34
